createdAt,value
2019-04-20T00:02:11.913Z,103012.78
2019-04-20T00:05:09.694Z,103015.86
2019-04-20T00:08:21.005Z,103017.16
2019-04-20T00:11:27.569Z,103014.94
2019-04-20T00:14:29.571Z,103007.00
2019-04-20T00:17:30.649Z,103008.34
2019-04-20T00:20:37.173Z,103008.31
2019-04-20T00:23:46.800Z,103012.30
2019-04-20T00:27:14.618Z,103005.23
2019-04-20T00:30:06.720Z,103001.68
2019-04-20T00:33:09.664Z,103002.96
2019-04-20T00:36:07.245Z,103007.41
2019-04-20T00:39:14.995Z,103007.84
2019-04-20T00:42:18.537Z,103013.03
2019-04-20T00:45:28.335Z,103009.84
2019-04-20T00:48:40.341Z,102996.09
2019-04-20T00:51:53.829Z,103001.86
2019-04-20T00:54:41.238Z,102994.81
2019-04-20T00:57:53.024Z,102994.36
2019-04-20T01:01:20.605Z,102996.00
2019-04-20T01:04:15.296Z,102991.12
2019-04-20T01:07:23.277Z,103006.90
2019-04-20T01:10:17.309Z,103001.58
2019-04-20T01:13:23.901Z,102999.09
2019-04-20T01:16:36.544Z,103001.54
2019-04-20T01:19:32.446Z,103007.70
2019-04-20T01:22:45.474Z,103008.58
2019-04-20T01:25:44.293Z,103009.37
2019-04-20T01:29:03.866Z,103006.77
2019-04-20T01:32:06.128Z,103005.76
2019-04-20T01:35:14.061Z,103008.69
2019-04-20T01:38:20.942Z,103004.83
2019-04-20T01:41:09.859Z,103001.98
2019-04-20T01:44:18.949Z,103006.88
2019-04-20T01:47:22.701Z,103003.84
2019-04-20T01:54:48.591Z,102999.30
2019-04-20T01:57:56.214Z,102994.70
2019-04-20T02:01:13.587Z,102993.28
2019-04-20T02:04:20.521Z,102998.55
2019-04-20T02:07:28.448Z,103002.37
2019-04-20T02:10:37.042Z,103008.59
2019-04-20T02:13:43.676Z,103001.19
2019-04-20T02:16:44.045Z,103004.62
2019-04-20T02:20:05.491Z,103005.08
2019-04-20T02:23:04.126Z,103008.27
2019-04-20T02:25:56.597Z,103002.95
2019-04-20T02:29:24.578Z,103009.48
2019-04-20T02:42:34.033Z,103011.29
2019-04-20T02:45:42.309Z,103012.69
2019-04-20T02:48:50.271Z,103008.02
2019-04-20T02:52:02.537Z,103006.56
2019-04-20T02:55:05.903Z,103011.62
2019-04-20T03:00:58.324Z,103008.91
2019-04-20T03:03:48.942Z,103011.97
2019-04-20T03:07:03.861Z,103020.83
2019-04-20T03:10:12.462Z,103016.00
2019-04-20T03:13:18.329Z,103015.94
2019-04-20T03:16:27.809Z,103012.95
2019-04-20T03:19:23.478Z,103021.98
2019-04-20T03:23:07.338Z,103020.25
2019-04-20T03:25:55.406Z,103017.35
2019-04-20T03:29:07.824Z,103026.69
2019-04-20T03:32:57.643Z,103010.44
2019-04-20T03:35:28.676Z,103020.92
2019-04-20T03:38:26.258Z,103012.33
2019-04-20T03:41:24.427Z,103009.95
2019-04-20T03:44:25.630Z,103008.30
2019-04-20T03:47:35.854Z,103006.55
2019-04-20T03:50:54.684Z,103013.30
2019-04-20T03:54:17.010Z,103010.89
2019-04-20T03:57:35.748Z,103006.97
2019-04-20T04:00:45.785Z,103002.05
2019-04-20T04:03:58.796Z,103003.81
2019-04-20T04:06:50.958Z,103007.12
2019-04-20T04:10:08.546Z,103009.48
2019-04-20T04:13:12.286Z,103006.25
2019-04-20T04:16:18.931Z,103006.46
2019-04-20T04:19:28.424Z,103011.13
2019-04-20T04:22:43.706Z,103003.19
2019-04-20T04:25:53.198Z,103009.63
2019-04-20T04:28:53.208Z,103011.66
2019-04-20T04:32:12.046Z,103014.28
2019-04-20T04:35:05.202Z,103019.06
2019-04-20T04:38:15.252Z,103015.81
2019-04-20T04:44:19.348Z,103021.52
2019-04-20T04:47:13.367Z,103022.59
2019-04-20T04:50:23.214Z,103022.38
2019-04-20T04:53:37.431Z,103022.47
2019-04-20T04:56:30.356Z,103028.61
2019-04-20T04:59:34.488Z,103021.12
2019-04-20T05:02:45.287Z,103027.02
2019-04-20T05:06:08.896Z,103025.64
2019-04-20T05:08:58.496Z,103033.84
2019-04-20T05:12:05.430Z,103034.85
2019-04-20T05:15:13.103Z,103035.02
2019-04-20T05:18:34.665Z,103038.48
2019-04-20T05:21:58.761Z,103032.59
2019-04-20T05:25:09.167Z,103032.78
2019-04-20T05:28:11.874Z,103037.19
2019-04-20T05:31:03.582Z,103036.21
2019-04-20T05:34:29.529Z,103045.89
2019-04-20T05:37:34.655Z,103031.61
2019-04-20T05:40:42.676Z,103038.47
2019-04-20T05:43:57.876Z,103037.81
2019-04-20T05:47:07.842Z,103033.86
2019-04-20T05:50:00.987Z,103034.91
2019-04-20T05:53:14.411Z,103035.95
2019-04-20T05:56:16.985Z,103042.88
2019-04-20T05:59:23.486Z,103037.88
2019-04-20T06:02:32.123Z,103040.97
2019-04-20T06:05:45.907Z,103040.22
2019-04-20T06:08:48.025Z,103042.09
2019-04-20T06:12:04.881Z,103037.81
2019-04-20T06:15:04.511Z,103037.48
2019-04-20T06:18:18.977Z,103040.70
2019-04-20T06:21:34.687Z,103042.63
2019-04-20T06:24:44.900Z,103040.42
2019-04-20T06:27:49.203Z,103040.50
2019-04-20T06:30:43.200Z,103045.84
2019-04-20T06:37:29.292Z,103044.13
2019-04-20T06:40:50.150Z,103045.45
2019-04-20T06:43:40.999Z,103042.80
2019-04-20T06:46:48.658Z,103047.59
2019-04-20T06:49:38.437Z,103051.11
2019-04-20T06:53:31.055Z,103045.38
2019-04-20T06:56:29.130Z,103046.20
2019-04-20T06:59:39.290Z,103042.63
2019-04-20T07:02:41.787Z,103041.73
2019-04-20T07:05:49.062Z,103045.95
2019-04-20T07:08:57.307Z,103045.87
2019-04-20T07:11:53.020Z,103054.28
2019-04-20T07:14:49.637Z,103052.48
2019-04-20T07:18:08.257Z,103054.50
2019-04-20T07:21:23.422Z,103056.62
2019-04-20T07:24:35.049Z,103043.73
2019-04-20T07:27:33.626Z,103039.12
2019-04-20T07:30:40.342Z,103046.66
2019-04-20T07:33:46.354Z,103042.88
2019-04-20T07:36:57.406Z,103047.05
2019-04-20T07:39:53.739Z,103048.27
2019-04-20T07:42:58.946Z,103054.20
2019-04-20T07:46:10.275Z,103049.41
2019-04-20T07:49:12.864Z,103044.91
2019-04-20T07:51:55.558Z,103048.83
2019-04-20T07:55:32.991Z,103044.97
2019-04-20T07:58:18.964Z,103041.38
2019-04-20T08:01:45.277Z,103044.94
2019-04-20T08:04:49.978Z,103049.22
2019-04-20T08:07:46.395Z,103050.23
2019-04-20T08:11:00.760Z,103045.50
2019-04-20T08:14:14.528Z,103042.64
2019-04-20T08:17:22.925Z,103046.38
2019-04-20T08:20:17.329Z,103042.63
2019-04-20T08:23:38.838Z,103038.84
2019-04-20T08:26:18.213Z,103040.36
2019-04-20T08:29:41.736Z,103042.20
2019-04-20T08:33:12.250Z,103038.61
2019-04-20T08:36:22.837Z,103034.69
2019-04-20T08:39:41.168Z,103027.79
2019-04-20T08:42:39.951Z,103026.52
2019-04-20T08:45:41.870Z,103021.38
2019-04-20T08:48:46.820Z,103022.70
2019-04-20T08:52:05.959Z,103024.05
2019-04-20T08:55:01.289Z,103016.73
2019-04-20T08:57:44.862Z,103021.81
2019-04-20T09:00:55.425Z,103019.48
2019-04-20T09:04:05.111Z,103023.05
2019-04-20T09:07:10.142Z,103018.70
2019-04-20T09:10:28.178Z,103021.11
2019-04-20T09:13:23.061Z,103020.44
2019-04-20T09:16:19.956Z,103025.65
2019-04-20T09:19:36.767Z,103018.73
2019-04-20T09:22:46.959Z,103012.80
2019-04-20T09:29:07.274Z,103009.66
2019-04-20T09:32:34.342Z,103013.21
2019-04-20T09:35:39.145Z,103014.44
2019-04-20T09:38:58.338Z,103008.87
2019-04-20T09:42:10.781Z,103003.09
2019-04-20T09:45:23.354Z,103007.98
2019-04-20T09:48:31.792Z,102996.81
2019-04-20T09:51:43.692Z,102996.28
2019-04-20T09:54:51.884Z,102996.02
2019-04-20T09:57:59.106Z,102992.95
2019-04-20T10:01:03.290Z,102982.06
2019-04-20T10:03:51.050Z,102986.22
2019-04-20T10:06:55.324Z,102986.22
2019-04-20T10:09:59.930Z,102981.73
2019-04-20T10:13:05.695Z,102974.19
2019-04-20T10:16:09.383Z,102978.63
2019-04-20T10:19:13.730Z,102970.55
2019-04-20T10:22:18.449Z,102979.13
2019-04-20T10:25:22.598Z,102976.61
2019-04-20T10:28:27.609Z,102967.28
2019-04-20T10:31:35.715Z,102970.06
2019-04-20T10:34:37.106Z,102966.13
2019-04-20T10:37:45.641Z,102960.80
2019-04-20T10:40:58.464Z,102973.55
2019-04-20T10:43:55.064Z,102964.77
2019-04-20T10:46:59.089Z,102958.16
2019-04-20T10:50:03.198Z,102960.41
2019-04-20T10:53:07.922Z,102962.23
2019-04-20T10:56:11.794Z,102955.27
2019-04-20T10:59:15.979Z,102947.42
2019-04-20T11:02:21.528Z,102945.84
2019-04-20T11:05:26.462Z,102942.46
2019-04-20T11:08:30.679Z,102944.52
2019-04-20T11:11:35.783Z,102941.30
2019-04-20T11:14:43.479Z,102935.33
2019-04-20T11:17:45.834Z,102928.84
2019-04-20T11:20:51.106Z,102927.94
2019-04-20T11:23:56.148Z,102934.59
2019-04-20T11:27:00.416Z,102923.79
2019-04-20T11:30:05.045Z,102907.93
2019-04-20T11:33:09.951Z,102914.38
2019-04-20T11:36:14.967Z,102913.72
2019-04-20T11:39:18.857Z,102912.37
2019-04-20T11:42:23.619Z,102903.45
2019-04-20T11:45:28.741Z,102911.70
2019-04-20T11:48:33.792Z,102901.52
2019-04-20T11:51:37.823Z,102901.61
2019-04-20T11:54:42.192Z,102890.34
2019-04-20T11:57:47.196Z,102886.44
2019-04-20T12:01:02.747Z,102888.64
2019-04-20T12:04:02.839Z,102882.47
2019-04-20T12:07:04.752Z,102879.48
2019-04-20T12:10:14.878Z,102883.44
2019-04-20T12:13:14.805Z,102874.90
2019-04-20T12:16:19.380Z,102868.85
2019-04-20T12:19:24.615Z,102860.44
2019-04-20T12:22:28.821Z,102855.69
2019-04-20T12:25:35.889Z,102851.95
2019-04-20T12:28:38.201Z,102845.45
2019-04-20T12:31:46.340Z,102842.33
2019-04-20T12:34:47.670Z,102838.03
2019-04-20T12:37:51.773Z,102843.31
2019-04-20T12:40:55.736Z,102833.23
2019-04-20T12:43:59.640Z,102830.36
2019-04-20T12:47:03.706Z,102830.98
2019-04-20T12:50:10.200Z,102826.97
2019-04-20T12:53:14.814Z,102824.38
2019-04-20T12:56:18.672Z,102819.08
2019-04-20T12:59:23.491Z,102820.92
2019-04-20T13:02:27.753Z,102818.16
2019-04-20T13:05:31.874Z,102807.38
2019-04-20T13:08:41.553Z,102803.89
2019-04-20T13:11:56.821Z,102808.77
2019-04-20T13:15:32.063Z,102800.53
2019-04-20T13:18:43.438Z,102805.08
2019-04-20T13:21:47.302Z,102805.08
2019-04-20T13:24:51.088Z,102789.66
2019-04-20T13:27:54.858Z,102786.23
2019-04-20T13:30:59.762Z,102792.53
2019-04-20T13:34:03.808Z,102785.94
2019-04-20T13:37:08.445Z,102777.59
2019-04-20T13:40:12.910Z,102767.32
2019-04-20T13:43:17.618Z,102775.58
2019-04-20T13:46:22.804Z,102771.88
2019-04-20T13:49:27.119Z,102771.98
2019-04-20T13:52:31.009Z,102772.90
2019-04-20T13:55:35.941Z,102765.02
2019-04-20T13:58:56.885Z,102760.84
2019-04-20T14:02:17.831Z,102755.54
2019-04-20T14:05:32.807Z,102745.64
2019-04-20T14:08:37.493Z,102746.13
2019-04-20T14:11:41.429Z,102746.14
2019-04-20T14:14:46.823Z,102745.95
2019-04-20T14:17:51.290Z,102741.23
2019-04-20T14:20:56.302Z,102735.86
2019-04-20T14:24:01.326Z,102734.33
2019-04-20T14:27:06.477Z,102738.73
2019-04-20T14:30:11.108Z,102734.72
2019-04-20T14:33:14.827Z,102735.33
2019-04-20T14:36:19.094Z,102739.72
2019-04-20T14:39:22.899Z,102740.22
2019-04-20T14:42:35.455Z,102737.66
2019-04-20T14:45:32.404Z,102732.91
2019-04-20T14:48:36.620Z,102729.22
2019-04-20T14:51:41.574Z,102722.56
2019-04-20T14:54:45.665Z,102732.89
2019-04-20T14:57:49.795Z,102724.92
2019-04-20T15:00:58.584Z,102724.54
2019-04-20T15:04:06.758Z,102714.77
2019-04-20T15:07:08.765Z,102715.45
2019-04-20T15:10:13.061Z,102707.48
2019-04-20T15:13:17.069Z,102706.30
2019-04-20T15:16:22.480Z,102703.09
2019-04-20T15:19:31.731Z,102701.16
2019-04-20T15:22:39.241Z,102699.83
2019-04-20T15:25:44.383Z,102702.00
2019-04-20T15:28:48.613Z,102697.05
2019-04-20T15:31:54.205Z,102699.20
2019-04-20T15:34:58.649Z,102698.36
2019-04-20T15:38:02.928Z,102700.27
2019-04-20T15:41:08.781Z,102698.06
2019-04-20T15:44:13.243Z,102694.72
2019-04-20T15:47:17.503Z,102695.83
2019-04-20T15:50:22.168Z,102692.44
2019-04-20T15:53:26.339Z,102691.34
2019-04-20T15:56:30.306Z,102692.50
2019-04-20T15:59:34.750Z,102685.52
2019-04-20T16:02:57.133Z,102678.80
2019-04-20T16:06:03.343Z,102681.67
2019-04-20T16:09:08.501Z,102681.76
2019-04-20T16:12:13.025Z,102684.36
2019-04-20T16:15:17.893Z,102669.94
2019-04-20T16:18:23.018Z,102677.53
2019-04-20T16:21:30.218Z,102667.72
2019-04-20T16:24:37.512Z,102672.02
2019-04-20T16:27:41.613Z,102668.97
2019-04-20T16:30:45.751Z,102676.14
2019-04-20T16:33:50.560Z,102672.98
2019-04-20T16:36:56.932Z,102672.47
2019-04-20T16:40:02.793Z,102660.07
2019-04-20T16:43:17.979Z,102660.78
2019-04-20T16:46:13.063Z,102662.86
2019-04-20T16:49:17.019Z,102662.80
2019-04-20T16:52:21.184Z,102657.25
2019-04-20T16:55:25.200Z,102652.17
2019-04-20T16:58:29.236Z,102646.00
2019-04-20T17:01:33.364Z,102647.48
2019-04-20T17:04:37.505Z,102642.05
2019-04-20T17:07:44.761Z,102645.91
2019-04-20T17:10:48.917Z,102645.27
2019-04-20T17:13:55.363Z,102642.95
2019-04-20T17:16:58.341Z,102650.01
2019-04-20T17:20:03.881Z,102650.81
2019-04-20T17:23:10.325Z,102638.50
2019-04-20T17:26:16.857Z,102638.76
2019-04-20T17:29:24.231Z,102635.86
2019-04-20T17:32:29.564Z,102636.30
2019-04-20T17:35:44.977Z,102639.59
2019-04-20T17:38:44.567Z,102643.99
2019-04-20T17:42:03.016Z,102640.13
2019-04-20T17:45:00.711Z,102643.67
2019-04-20T17:48:08.915Z,102637.17
2019-04-20T17:51:23.427Z,102637.50
2019-04-20T17:54:22.368Z,102645.56
2019-04-20T17:57:26.167Z,102648.41
2019-04-20T18:00:52.806Z,102651.41
2019-04-20T18:04:22.586Z,102647.84
2019-04-20T18:07:25.168Z,102643.72
2019-04-20T18:10:26.099Z,102645.22
2019-04-20T18:13:20.192Z,102643.21
2019-04-20T18:16:45.452Z,102643.05
2019-04-20T18:19:36.810Z,102645.69
2019-04-20T18:22:44.149Z,102643.35
2019-04-20T18:26:15.922Z,102642.59
2019-04-20T18:29:10.678Z,102640.69
2019-04-20T18:32:05.118Z,102640.59
2019-04-20T18:35:14.013Z,102644.08
2019-04-20T18:38:18.459Z,102647.45
2019-04-20T18:41:31.428Z,102647.39
2019-04-20T18:44:46.135Z,102652.97
2019-04-20T18:47:55.165Z,102656.38
2019-04-20T18:50:42.180Z,102659.41
2019-04-20T18:53:48.194Z,102651.09
2019-04-20T18:56:52.995Z,102648.15
2019-04-20T18:59:57.196Z,102646.77
2019-04-20T19:03:09.605Z,102649.07
2019-04-20T19:06:09.044Z,102647.70
2019-04-20T19:09:16.798Z,102652.27
2019-04-20T19:12:21.682Z,102654.53
2019-04-20T19:16:00.262Z,102649.18
2019-04-20T19:19:09.919Z,102649.18
2019-04-20T19:22:06.065Z,102651.73
2019-04-20T19:25:18.487Z,102655.30
2019-04-20T19:28:21.613Z,102653.67
2019-04-20T19:31:41.506Z,102664.07
2019-04-20T19:34:44.610Z,102663.80
2019-04-20T19:37:40.737Z,102662.27
2019-04-20T19:40:47.939Z,102660.78
2019-04-20T19:43:56.403Z,102653.75
2019-04-20T19:47:11.046Z,102661.11
2019-04-20T19:50:25.248Z,102662.44
2019-04-20T19:53:26.362Z,102652.57
2019-04-20T19:56:26.394Z,102653.15
2019-04-20T19:59:23.365Z,102650.77
2019-04-20T20:02:19.147Z,102641.78
2019-04-20T20:05:31.452Z,102642.06
2019-04-20T20:08:31.576Z,102647.73
2019-04-20T20:11:39.180Z,102643.72
2019-04-20T20:14:44.796Z,102642.98
2019-04-20T20:18:05.792Z,102640.55
2019-04-20T20:21:08.522Z,102631.99
2019-04-20T20:23:57.412Z,102625.36
2019-04-20T20:27:06.176Z,102630.38
2019-04-20T20:30:15.065Z,102626.41
2019-04-20T20:33:28.018Z,102628.74
2019-04-20T20:36:21.719Z,102623.63
2019-04-20T20:39:29.384Z,102624.09
2019-04-20T20:42:45.764Z,102617.43
2019-04-20T20:45:42.346Z,102614.79
2019-04-20T20:49:04.922Z,102611.14
2019-04-20T20:52:06.732Z,102609.17
2019-04-20T20:55:03.674Z,102618.11
2019-04-20T20:58:09.777Z,102619.47
2019-04-20T21:01:14.373Z,102612.05
2019-04-20T21:04:10.071Z,102612.95
2019-04-20T21:07:13.800Z,102612.53
2019-04-20T21:10:25.852Z,102613.53
2019-04-20T21:13:28.361Z,102618.78
2019-04-20T21:16:32.921Z,102616.21
2019-04-20T21:19:53.357Z,102617.93
2019-04-20T21:22:54.873Z,102609.18
2019-04-20T21:26:04.790Z,102614.42
2019-04-20T21:29:10.149Z,102608.70
2019-04-20T21:32:17.959Z,102598.58
2019-04-20T21:35:21.744Z,102600.94
2019-04-20T21:38:31.379Z,102606.27
2019-04-20T21:41:31.457Z,102608.52
2019-04-20T21:44:40.745Z,102605.03
2019-04-20T21:47:43.584Z,102610.80
2019-04-20T21:51:01.627Z,102610.83
2019-04-20T21:53:56.432Z,102608.22
2019-04-20T21:57:03.120Z,102601.23
2019-04-20T22:00:15.105Z,102599.98
2019-04-20T22:03:14.655Z,102596.89
2019-04-20T22:06:18.348Z,102604.38
2019-04-20T22:09:25.089Z,102604.38
2019-04-20T22:12:37.595Z,102602.66
2019-04-20T22:15:35.365Z,102605.34
2019-04-20T22:18:49.524Z,102600.05
2019-04-20T22:22:00.050Z,102597.38
2019-04-20T22:25:02.701Z,102598.30
2019-04-20T22:27:58.515Z,102589.06
2019-04-20T22:31:02.191Z,102587.72
2019-04-20T22:34:09.010Z,102589.48
2019-04-20T22:37:17.921Z,102586.41
2019-04-20T22:40:21.951Z,102584.64
2019-04-20T22:43:26.151Z,102577.17
2019-04-20T22:46:31.807Z,102580.23
2019-04-20T22:49:48.188Z,102584.20
2019-04-20T22:52:50.431Z,102578.03
2019-04-20T22:56:11.100Z,102582.00
2019-04-20T22:59:01.071Z,102578.91
2019-04-20T23:02:00.345Z,102580.66
2019-04-20T23:05:02.841Z,102575.83
2019-04-20T23:08:06.812Z,102574.06
2019-04-20T23:11:17.965Z,102566.57
2019-04-20T23:14:18.269Z,102562.13
2019-04-20T23:17:26.988Z,102559.45
2019-04-20T23:20:32.565Z,102555.95
2019-04-20T23:23:33.870Z,102555.02
2019-04-20T23:26:42.230Z,102546.27
2019-04-20T23:29:45.188Z,102547.15
2019-04-20T23:32:49.739Z,102540.57
2019-04-20T23:35:56.582Z,102540.05
2019-04-20T23:39:02.613Z,102543.55
2019-04-20T23:42:08.532Z,102536.91
2019-04-20T23:45:26.985Z,102536.54
2019-04-20T23:48:35.981Z,102537.23
2019-04-20T23:51:59.244Z,102532.03
2019-04-20T23:54:51.329Z,102533.67
2019-04-20T23:57:56.789Z,102532.41
